^^
Station Historical Data
Daily Summary for September 7, 2017 Units:  Metric    English   Both
« Previous Day
Next Day »
Daily Weekly Monthly Yearly Custom
  High: Low: Average:
Temperature: 26.2 °C 5.6 °C 14.7 °C
Dew Point: 6.8 °C -7.9 °C 2.1 °C
Humidity: 89% 10% 51%
Wind Speed: 20.9km/h 0km/h 4.8km/h
Wind Gust: 24.1km/h - -
Wind- - SSW
Pressure: 1019.2 hPa 1015.1 hPa -
Precipitation: 0 mm    
Historical Graphs
 
 
Tabular Data for September 7, 2017
Time Temperature Dew Point Pressure Wind Wind Speed Wind Gust Humidity Rainfall Rate (Hourly) solar Conditions
00:09 13.4 °C 6.3 °C 1017.5 hPa SSW 11.1 km/h 12.9 km/h 62% 0 mm 0.0 W/m2
00:18 13.2 °C 6.3 °C 1017.8 hPa SSW 9.7 km/h 9.7 km/h 63% 0 mm 0.0 W/m2
00:23 13.1 °C 6.2 °C 1017.8 hPa SSW 11.1 km/h 11.3 km/h 63% 0 mm 0.0 W/m2
00:28 13.1 °C 6.4 °C 1017.8 hPa SSW 11.1 km/h 11.3 km/h 64% 0 mm 0.0 W/m2
00:34 13.1 °C 6.4 °C 1017.8 hPa SSW 7.9 km/h 11.3 km/h 64% 0 mm 0.0 W/m2
00:44 12.8 °C 6.2 °C 1017.8 hPa SSW 9.7 km/h 11.3 km/h 64% 0 mm 0.0 W/m2
00:53 12.6 °C 6.4 °C 1017.8 hPa SSW 6.4 km/h 9.7 km/h 66% 0 mm 0.0 W/m2
01:04 12.3 °C 6.1 °C 1017.8 hPa SSW 7.9 km/h 8 km/h 66% 0 mm 0.0 W/m2
01:13 12 °C 6.1 °C 1017.8 hPa SSW 7.9 km/h 8 km/h 67% 0 mm 0.0 W/m2
01:24 11.9 °C 6.2 °C 1017.8 hPa SSW 7.9 km/h 11.3 km/h 68% 0 mm 0.0 W/m2
01:39 11.6 °C 5.9 °C 1017.8 hPa SSW 6.4 km/h 6.4 km/h 68% 0 mm 0.0 W/m2
01:44 11.4 °C 5.7 °C 1017.8 hPa SSW 6.4 km/h 8 km/h 68% 0 mm 0.0 W/m2
01:54 10.9 °C 5.4 °C 1017.8 hPa SSW 7.9 km/h 8 km/h 69% 0 mm 0.0 W/m2
02:04 10.6 °C 5.4 °C 1017.8 hPa Calm     70% 0 mm 0.0 W/m2
02:20 10.2 °C 5.6 °C 1017.5 hPa Calm     73% 0 mm 0.0 W/m2
02:25 10.2 °C 5.2 °C 1017.5 hPa Calm     71% 0 mm 0.0 W/m2
02:30 10 °C 5 °C 1017.5 hPa Calm     71% 0 mm 0.0 W/m2
02:35 9.8 °C 5 °C 1017.5 hPa Calm     72% 0 mm 0.0 W/m2
02:41 9.7 °C 5.1 °C 1017.5 hPa Calm     73% 0 mm 0.0 W/m2
02:46 9.6 °C 5.2 °C 1017.5 hPa Calm     74% 0 mm 0.0 W/m2
02:52 9.6 °C 5.2 °C 1017.5 hPa Calm     74% 0 mm 0.0 W/m2
02:57 9.6 °C 5.2 °C 1017.2 hPa Calm     74% 0 mm 0.0 W/m2
03:02 9.4 °C 5 °C 1017.2 hPa Calm     74% 0 mm 0.0 W/m2
03:07 9.3 °C 4.9 °C 1017.2 hPa Calm     74% 0 mm 0.0 W/m2
03:17 9.1 °C 4.9 °C 1016.8 hPa Calm     75% 0 mm 0.0 W/m2
03:22 9 °C 4.8 °C 1016.8 hPa Calm     75% 0 mm 0.0 W/m2
03:27 8.8 °C 4.6 °C 1016.8 hPa Calm     75% 0 mm 0.0 W/m2
03:38 8.5 °C 4.5 °C 1016.8 hPa Calm     76% 0 mm 0.0 W/m2
03:55 8.2 °C 4.4 °C 1016.8 hPa Calm     77% 0 mm 0.0 W/m2
04:04 8.2 °C 4.8 °C 1016.8 hPa Calm     79% 0 mm 0.0 W/m2
04:09 8.4 °C 5 °C 1016.8 hPa Calm     79% 0 mm 0.0 W/m2
04:15 8.5 °C 5.1 °C 1016.8 hPa Calm     79% 0 mm 0.0 W/m2
04:20 8.4 °C 4.8 °C 1016.8 hPa Calm     78% 0 mm 0.0 W/m2
04:26 8.2 °C 4.6 °C 1016.8 hPa Calm     78% 0 mm 0.0 W/m2
04:31 8.1 °C 4.7 °C 1016.5 hPa Calm     79% 0 mm 0.0 W/m2
04:36 8.1 °C 4.7 °C 1016.8 hPa Calm     79% 0 mm 0.0 W/m2
04:41 8 °C 4.8 °C 1016.5 hPa Calm     80% 0 mm 0.0 W/m2
04:47 7.9 °C 4.7 °C 1016.5 hPa Calm     80% 0 mm 0.0 W/m2
04:52 7.8 °C 4.6 °C 1016.5 hPa Calm     80% 0 mm 0.0 W/m2
04:57 7.7 °C 4.5 °C 1016.8 hPa Calm     80% 0 mm 0.0 W/m2
05:08 7.4 °C 4.4 °C 1016.8 hPa Calm     81% 0 mm 0.0 W/m2
05:23 7.7 °C 4.8 °C 1016.8 hPa Calm     82% 0 mm 0.0 W/m2
05:28 7.8 °C 5.1 °C 1017.2 hPa Calm     83% 0 mm 0.0 W/m2
05:33 7.9 °C 5 °C 1017.2 hPa Calm     82% 0 mm 0.0 W/m2
05:38 7.9 °C 5 °C 1017.2 hPa Calm     82% 0 mm 0.0 W/m2
05:44 7.8 °C 4.9 °C 1017.2 hPa Calm     82% 0 mm 0.0 W/m2
05:49 7.7 °C 4.8 °C 1017.2 hPa Calm     82% 0 mm 0.0 W/m2
06:00 7.4 °C 4.5 °C 1017.2 hPa Calm     82% 0 mm 0.0 W/m2
06:06 7.2 °C 4.3 °C 1017.2 hPa Calm     82% 0 mm 0.0 W/m2
06:13 7.1 °C 4.4 °C 1017.5 hPa Calm     83% 0 mm 0.0 W/m2
06:22 6.8 °C 4.3 °C 1017.5 hPa Calm     84% 0 mm 0.0 W/m2
06:31 6.7 °C 4.4 °C 1017.8 hPa Calm     85% 0 mm 0.0 W/m2
06:37 6.6 °C 4.3 °C 1017.8 hPa Calm     85% 0 mm 0.0 W/m2
06:46 6.4 °C 4.1 °C 1018.2 hPa Calm     85% 0 mm 0.0 W/m2
06:53 6.3 °C 4.6 °C 1017.8 hPa Calm     89% 0 mm 0.0 W/m2
07:02 5.9 °C 3.1 °C 1018.2 hPa Calm     82% 0 mm 7.0 W/m2
07:12 5.6 °C 3.4 °C 1018.2 hPa Calm     86% 0 mm 12.0 W/m2
07:25 5.7 °C 3.5 °C 1018.5 hPa Calm     86% 0 mm 19.0 W/m2
07:36 5.8 °C 3.6 °C 1018.5 hPa Calm     86% 0 mm 63.0 W/m2
07:47 6.6 °C 4.6 °C 1018.5 hPa Calm     87% 0 mm 95.0 W/m2
07:58 7.4 °C 5 °C 1018.8 hPa Calm     85% 0 mm 139.0 W/m2
08:14 8.9 °C 6.2 °C 1018.8 hPa Calm     83% 0 mm 209.0 W/m2
08:44 10.9 °C 6.8 °C 1018.8 hPa Calm     76% 0 mm 320.0 W/m2
08:51 11.2 °C 5.9 °C 1019.2 hPa Calm     70% 0 mm 355.0 W/m2
08:57 11.4 °C 5.9 °C 1019.2 hPa SSW 9.7 km/h 12.9 km/h 69% 0 mm 371.0 W/m2
09:04 11.7 °C 6.4 °C 1019.2 hPa SSW 13 km/h 13 km/h 70% 0 mm 388.0 W/m2
09:16 12.1 °C 6.8 °C 1019.2 hPa SSW 13 km/h 13 km/h 70% 0 mm 422.0 W/m2
09:55 13.8 °C 6.4 °C 1019.2 hPa SSW 6.4 km/h 9.7 km/h 61% 0 mm 545.0 W/m2
10:12 14.7 °C 6.3 °C 1018.8 hPa Calm     57% 0 mm 589.0 W/m2
10:29 15.7 °C 6.4 °C 1018.8 hPa Calm     54% 0 mm 629.0 W/m2
10:47 17.3 °C 6.5 °C 1018.8 hPa Calm     49% 0 mm 682.0 W/m2
11:02 18.7 °C 6.5 °C 1018.8 hPa Calm     45% 0 mm 710.0 W/m2
11:12 19.2 °C 5.6 °C 1018.8 hPa Calm     41% 0 mm 729.0 W/m2
11:22 19.9 °C 5.5 °C 1018.5 hPa Calm     39% 0 mm 751.0 W/m2
11:31 20.8 °C 3.5 °C 1018.5 hPa Calm     32% 0 mm 763.0 W/m2
11:43 21.1 °C 2.4 °C 1018.5 hPa Calm     29% 0 mm 775.0 W/m2
11:58 21.7 °C 2.9 °C 1018.2 hPa Calm     29% 0 mm 791.0 W/m2
12:14 22.2 °C 2.8 °C 1017.8 hPa Calm     28% 0 mm 803.0 W/m2
12:22 22.6 °C 2.1 °C 1017.8 hPa Calm     26% 0 mm 809.0 W/m2
12:30 22.9 °C 2.4 °C 1017.8 hPa Calm     26% 0 mm 816.0 W/m2
12:39 23.4 °C 2.2 °C 1017.5 hPa Calm     25% 0 mm 817.0 W/m2
13:03 24.2 °C -4.1 °C 1017.2 hPa SW 1.4 km/h 4.8 km/h 15% 0 mm 821.0 W/m2
13:15 24.6 °C -1.3 °C 1017.2 hPa Calm     18% 0 mm 812.0 W/m2
13:24 24.4 °C -2.2 °C 1016.8 hPa Calm   8 km/h 17% 0 mm 805.0 W/m2
13:36 24.3 °C -3.1 °C 1016.8 hPa SW 4.7 km/h 14.5 km/h 16% 0 mm 798.0 W/m2
13:52 24.9 °C -5.4 °C 1016.5 hPa Calm   12.9 km/h 13% 0 mm 788.0 W/m2
14:37 25.8 °C -3.7 °C 1016.1 hPa SW 9.7 km/h 11.3 km/h 14% 0 mm 715.0 W/m2
14:48 25.9 °C -2.7 °C 1015.8 hPa SW 11.1 km/h 19.3 km/h 15% 0 mm 693.0 W/m2
15:03 26 °C -3.6 °C 1015.8 hPa SW 6.4 km/h 12.9 km/h 14% 0 mm 663.0 W/m2
15:20 25.7 °C -3.8 °C 1015.5 hPa Calm     14% 0 mm 619.0 W/m2
15:34 26.2 °C -5.5 °C 1015.5 hPa SSW 9.7 km/h 12.9 km/h 12% 0 mm 585.0 W/m2
15:50 26.1 °C -5.5 °C 1015.5 hPa SSW 11.1 km/h 16.1 km/h 12% 0 mm 543.0 W/m2
16:04 26 °C -6.8 °C 1015.1 hPa Calm   1.6 km/h 11% 0 mm 497.0 W/m2
16:20 26.1 °C -7.9 °C 1015.1 hPa Calm   6.4 km/h 10% 0 mm 448.0 W/m2
16:36 26.1 °C -7.9 °C 1015.1 hPa SSW 9.7 km/h 12.9 km/h 10% 0 mm 403.0 W/m2
17:00 25.9 °C -6.8 °C 1015.1 hPa SSW 7.9 km/h 14.5 km/h 11% 0 mm 318.0 W/m2
17:15 25.8 °C -3.7 °C 1015.1 hPa SSW 13 km/h 17.7 km/h 14% 0 mm 264.0 W/m2
17:30 25.1 °C -0.9 °C 1015.1 hPa SSW 17.7 km/h 22.5 km/h 18% 0 mm 202.0 W/m2
17:55 24.4 °C 0 °C 1015.5 hPa SSW 20.9 km/h 22.5 km/h 20% 0 mm 102.0 W/m2
18:10 23.9 °C -1.1 °C 1015.5 hPa SSW 14.3 km/h 24.1 km/h 19% 0 mm 51.0 W/m2
18:36 23.1 °C -1.8 °C 1015.8 hPa South 20.9 km/h 24.1 km/h 19% 0 mm 9.0 W/m2
18:50 22.4 °C -2.4 °C 1015.8 hPa South 17.7 km/h 17.7 km/h 19% 0 mm 0.0 W/m2
19:06 22 °C -3.4 °C 1015.8 hPa South 11.1 km/h 19.3 km/h 18% 0 mm 0.0 W/m2
19:21 21.4 °C -2.5 °C 1016.1 hPa South 9.7 km/h 14.5 km/h 20% 0 mm 0.0 W/m2
20:06 19.9 °C -1.9 °C 1016.8 hPa South 13 km/h 16.1 km/h 23% 0 mm 0.0 W/m2
20:23 19.7 °C -0.9 °C 1016.8 hPa SSW 13 km/h 16.1 km/h 25% 0 mm 0.0 W/m2
20:36 19.4 °C -1.1 °C 1016.8 hPa SSW 14.3 km/h 14.5 km/h 25% 0 mm 0.0 W/m2
20:50 19.3 °C -1.8 °C 1017.2 hPa SSW 16.3 km/h 16.3 km/h 24% 0 mm 0.0 W/m2
20:57 19.3 °C -1.8 °C 1017.2 hPa SSW 11.1 km/h 17.7 km/h 24% 0 mm 0.0 W/m2
21:07 19.2 °C -1.9 °C 1017.2 hPa SSW 9.7 km/h 12.9 km/h 24% 0 mm 0.0 W/m2
21:12 19 °C -2 °C 1017.2 hPa SSW 13 km/h 17.7 km/h 24% 0 mm 0.0 W/m2
21:18 18.9 °C -2.1 °C 1017.2 hPa SSW 11.1 km/h 16.1 km/h 24% 0 mm 0.0 W/m2
21:23 18.8 °C -2.2 °C 1017.5 hPa SSW 6.4 km/h 14.5 km/h 24% 0 mm 0.0 W/m2
21:32 18.1 °C -1.7 °C 1017.5 hPa SSW 9.7 km/h 14.5 km/h 26% 0 mm 0.0 W/m2
21:37 17.7 °C -2.1 °C 1017.8 hPa SSW 13 km/h 13 km/h 26% 0 mm 0.0 W/m2
21:47 17.4 °C -1.8 °C 1017.5 hPa SSW 9.7 km/h 12.9 km/h 27% 0 mm 0.0 W/m2
21:53 17.3 °C -1.9 °C 1017.8 hPa SSW 11.1 km/h 12.9 km/h 27% 0 mm 0.0 W/m2
21:59 17.2 °C -2 °C 1017.8 hPa SSW 11.1 km/h 12.9 km/h 27% 0 mm 0.0 W/m2
22:07 17 °C -1.6 °C 1017.8 hPa SSW 7.9 km/h 8 km/h 28% 0 mm 0.0 W/m2
22:12 16.8 °C -1.3 °C 1017.8 hPa SSW 6.4 km/h 8 km/h 29% 0 mm 0.0 W/m2
22:22 16.3 °C -1.3 °C 1017.8 hPa SSW 7.9 km/h 11.3 km/h 30% 0 mm 0.0 W/m2
22:27 16.1 °C -1.5 °C 1017.8 hPa SSW 11.1 km/h 11.3 km/h 30% 0 mm 0.0 W/m2
22:32 15.8 °C -1.3 °C 1017.8 hPa SSW 9.7 km/h 9.7 km/h 31% 0 mm 0.0 W/m2
22:38 15.6 °C -1.5 °C 1017.8 hPa SSW 7.9 km/h 9.7 km/h 31% 0 mm 0.0 W/m2
22:48 15.1 °C -1.1 °C 1017.8 hPa SSW 9.7 km/h 11.3 km/h 33% 0 mm 0.0 W/m2
22:53 15.1 °C -0.7 °C 1017.8 hPa SSW 11.1 km/h 12.9 km/h 34% 0 mm 0.0 W/m2
22:58 15.3 °C -0.5 °C 1017.8 hPa SSW 9.7 km/h 12.9 km/h 34% 0 mm 0.0 W/m2
23:08 15.5 °C 0.1 °C 1017.8 hPa SSW 13 km/h 13 km/h 35% 0 mm 0.0 W/m2
23:18 15.6 °C 0.2 °C 1017.8 hPa SSW 9.7 km/h 12.9 km/h 35% 0 mm 0.0 W/m2
23:23 15.6 °C 0.2 °C 1017.8 hPa SSW 9.7 km/h 11.3 km/h 35% 0 mm 0.0 W/m2
23:28 15.5 °C 0.1 °C 1017.8 hPa SSW 9.7 km/h 11.3 km/h 35% 0 mm 0.0 W/m2
23:38 15.1 °C 0.5 °C 1017.8 hPa SSW 6.4 km/h 8 km/h 37% 0 mm 0.0 W/m2
23:48 14.9 °C 0.3 °C 1017.8 hPa Calm     37% 0 mm 0.0 W/m2
23:53 14.8 °C 0.2 °C 1017.8 hPa Calm     37% 0 mm 0.0 W/m2
Canyon Roadhouse, Fishriver Canyon, Namibia
Compliments of Weather Underground - 2.25 mb